sensor_id;sensor_type;location;lat;lon;timestamp;P1;durP1;ratioP1;P2;durP2;ratioP2
62673;SDS011;62269;47.594;17.638;2023-04-01T00:00:08;4.20;;;3.67;;
62673;SDS011;62269;47.594;17.638;2023-04-01T00:00:56;4.60;;;3.62;;
62673;SDS011;62269;47.594;17.638;2023-04-01T00:01:44;3.80;;;3.33;;
62673;SDS011;62269;47.594;17.638;2023-04-01T00:02:31;6.25;;;3.80;;
62673;SDS011;62269;47.594;17.638;2023-04-01T00:03:19;4.87;;;4.03;;
62673;SDS011;62269;47.594;17.638;2023-04-01T00:04:07;4.55;;;3.20;;
62673;SDS011;62269;47.594;17.638;2023-04-01T00:04:54;6.75;;;3.55;;
62673;SDS011;62269;47.594;17.638;2023-04-01T00:05:41;4.15;;;3.62;;
62673;SDS011;62269;47.594;17.638;2023-04-01T00:06:28;4.70;;;3.40;;
62673;SDS011;62269;47.594;17.638;2023-04-01T00:07:15;4.15;;;3.60;;
62673;SDS011;62269;47.594;17.638;2023-04-01T00:08:02;3.80;;;3.40;;
62673;SDS011;62269;47.594;17.638;2023-04-01T00:08:49;5.00;;;3.60;;
62673;SDS011;62269;47.594;17.638;2023-04-01T00:09:36;3.67;;;3.35;;
62673;SDS011;62269;47.594;17.638;2023-04-01T00:10:23;5.53;;;3.75;;
62673;SDS011;62269;47.594;17.638;2023-04-01T00:11:11;3.83;;;3.37;;
62673;SDS011;62269;47.594;17.638;2023-04-01T00:11:58;3.87;;;3.25;;
62673;SDS011;62269;47.594;17.638;2023-04-01T00:12:45;4.43;;;3.45;;
62673;SDS011;62269;47.594;17.638;2023-04-01T00:13:32;3.62;;;3.33;;
62673;SDS011;62269;47.594;17.638;2023-04-01T00:14:19;3.97;;;3.45;;
62673;SDS011;62269;47.594;17.638;2023-04-01T00:15:08;4.65;;;3.70;;
62673;SDS011;62269;47.594;17.638;2023-04-01T00:15:56;7.62;;;3.92;;
62673;SDS011;62269;47.594;17.638;2023-04-01T00:16:45;3.90;;;3.50;;
62673;SDS011;62269;47.594;17.638;2023-04-01T00:17:32;4.57;;;3.47;;
62673;SDS011;62269;47.594;17.638;2023-04-01T00:18:20;3.85;;;3.45;;
62673;SDS011;62269;47.594;17.638;2023-04-01T00:19:07;4.68;;;4.15;;
62673;SDS011;62269;47.594;17.638;2023-04-01T00:19:54;5.47;;;3.50;;
62673;SDS011;62269;47.594;17.638;2023-04-01T00:20:45;4.25;;;3.62;;
62673;SDS011;62269;47.594;17.638;2023-04-01T00:21:33;5.95;;;3.28;;
62673;SDS011;62269;47.594;17.638;2023-04-01T00:22:20;4.32;;;3.50;;
62673;SDS011;62269;47.594;17.638;2023-04-01T00:23:08;4.07;;;3.47;;
62673;SDS011;62269;47.594;17.638;2023-04-01T00:23:55;4.03;;;3.58;;
62673;SDS011;62269;47.594;17.638;2023-04-01T00:24:42;5.40;;;3.70;;
62673;SDS011;62269;47.594;17.638;2023-04-01T00:25:29;4.53;;;3.60;;
62673;SDS011;62269;47.594;17.638;2023-04-01T00:26:17;4.53;;;3.60;;
62673;SDS011;62269;47.594;17.638;2023-04-01T00:27:06;5.20;;;3.83;;
62673;SDS011;62269;47.594;17.638;2023-04-01T00:27:54;4.03;;;3.62;;
62673;SDS011;62269;47.594;17.638;2023-04-01T00:28:41;3.80;;;3.40;;
62673;SDS011;62269;47.594;17.638;2023-04-01T00:29:28;5.68;;;3.62;;
62673;SDS011;62269;47.594;17.638;2023-04-01T00:30:17;5.18;;;3.70;;
62673;SDS011;62269;47.594;17.638;2023-04-01T00:31:05;5.35;;;3.62;;
62673;SDS011;62269;47.594;17.638;2023-04-01T00:31:53;5.03;;;3.70;;
62673;SDS011;62269;47.594;17.638;2023-04-01T00:32:40;4.40;;;3.75;;
62673;SDS011;62269;47.594;17.638;2023-04-01T00:33:27;4.78;;;3.65;;
62673;SDS011;62269;47.594;17.638;2023-04-01T00:34:14;5.15;;;3.72;;
62673;SDS011;62269;47.594;17.638;2023-04-01T00:35:01;4.90;;;3.50;;
62673;SDS011;62269;47.594;17.638;2023-04-01T00:35:48;4.32;;;3.60;;
62673;SDS011;62269;47.594;17.638;2023-04-01T00:36:35;5.10;;;4.00;;
62673;SDS011;62269;47.594;17.638;2023-04-01T00:37:22;4.60;;;3.22;;
62673;SDS011;62269;47.594;17.638;2023-04-01T00:38:09;6.37;;;3.90;;
62673;SDS011;62269;47.594;17.638;2023-04-01T00:38:57;4.30;;;3.70;;
62673;SDS011;62269;47.594;17.638;2023-04-01T00:39:47;4.32;;;3.92;;
62673;SDS011;62269;47.594;17.638;2023-04-01T00:40:36;4.75;;;3.60;;
62673;SDS011;62269;47.594;17.638;2023-04-01T00:41:24;4.15;;;3.72;;
62673;SDS011;62269;47.594;17.638;2023-04-01T00:42:12;4.87;;;3.97;;
62673;SDS011;62269;47.594;17.638;2023-04-01T00:43:00;5.25;;;3.75;;
62673;SDS011;62269;47.594;17.638;2023-04-01T00:43:48;3.85;;;3.35;;
62673;SDS011;62269;47.594;17.638;2023-04-01T00:44:37;6.37;;;4.03;;
62673;SDS011;62269;47.594;17.638;2023-04-01T00:45:26;4.47;;;3.60;;
62673;SDS011;62269;47.594;17.638;2023-04-01T00:46:14;4.35;;;3.78;;
62673;SDS011;62269;47.594;17.638;2023-04-01T00:47:02;4.40;;;3.47;;
62673;SDS011;62269;47.594;17.638;2023-04-01T00:47:49;6.25;;;3.90;;
62673;SDS011;62269;47.594;17.638;2023-04-01T00:48:37;5.85;;;4.15;;
62673;SDS011;62269;47.594;17.638;2023-04-01T00:49:27;4.87;;;3.78;;
62673;SDS011;62269;47.594;17.638;2023-04-01T00:50:16;5.47;;;3.87;;
62673;SDS011;62269;47.594;17.638;2023-04-01T00:51:11;3.97;;;3.58;;
62673;SDS011;62269;47.594;17.638;2023-04-01T00:52:04;5.20;;;3.90;;
62673;SDS011;62269;47.594;17.638;2023-04-01T00:52:52;4.43;;;3.72;;
62673;SDS011;62269;47.594;17.638;2023-04-01T00:53:41;4.87;;;3.80;;
62673;SDS011;62269;47.594;17.638;2023-04-01T00:54:30;4.37;;;3.72;;
62673;SDS011;62269;47.594;17.638;2023-04-01T00:55:18;4.90;;;3.80;;
62673;SDS011;62269;47.594;17.638;2023-04-01T00:56:07;5.93;;;3.60;;
62673;SDS011;62269;47.594;17.638;2023-04-01T00:57:02;4.78;;;3.78;;
62673;SDS011;62269;47.594;17.638;2023-04-01T00:57:52;6.12;;;4.07;;
62673;SDS011;62269;47.594;17.638;2023-04-01T00:58:41;4.97;;;4.10;;
62673;SDS011;62269;47.594;17.638;2023-04-01T00:59:32;5.03;;;4.12;;
62673;SDS011;62269;47.594;17.638;2023-04-01T01:00:21;5.87;;;4.00;;
62673;SDS011;62269;47.594;17.638;2023-04-01T01:01:08;5.18;;;4.00;;
62673;SDS011;62269;47.594;17.638;2023-04-01T01:01:56;6.12;;;3.87;;
62673;SDS011;62269;47.594;17.638;2023-04-01T01:02:44;4.10;;;3.70;;
62673;SDS011;62269;47.594;17.638;2023-04-01T01:03:32;5.05;;;3.90;;
62673;SDS011;62269;47.594;17.638;2023-04-01T01:05:13;4.85;;;3.83;;
62673;SDS011;62269;47.594;17.638;2023-04-01T01:06:11;5.62;;;4.12;;
62673;SDS011;62269;47.594;17.638;2023-04-01T01:09:37;6.97;;;4.20;;
62673;SDS011;62269;47.594;17.638;2023-04-01T01:10:34;4.37;;;3.97;;
62673;SDS011;62269;47.594;17.638;2023-04-01T01:14:56;5.37;;;4.30;;
62673;SDS011;62269;47.594;17.638;2023-04-01T01:15:54;5.05;;;4.20;;
62673;SDS011;62269;47.594;17.638;2023-04-01T01:16:54;4.18;;;3.72;;
62673;SDS011;62269;47.594;17.638;2023-04-01T01:18:55;5.60;;;4.45;;
62673;SDS011;62269;47.594;17.638;2023-04-01T01:22:46;4.78;;;4.00;;
62673;SDS011;62269;47.594;17.638;2023-04-01T01:25:13;6.15;;;4.47;;
62673;SDS011;62269;47.594;17.638;2023-04-01T01:27:22;4.65;;;4.10;;
62673;SDS011;62269;47.594;17.638;2023-04-01T01:29:42;6.62;;;4.50;;
62673;SDS011;62269;47.594;17.638;2023-04-01T01:30:39;6.47;;;3.97;;
62673;SDS011;62269;47.594;17.638;2023-04-01T01:32:41;6.10;;;4.30;;
62673;SDS011;62269;47.594;17.638;2023-04-01T01:35:52;5.40;;;4.30;;
62673;SDS011;62269;47.594;17.638;2023-04-01T01:36:40;5.25;;;4.22;;
62673;SDS011;62269;47.594;17.638;2023-04-01T01:37:29;5.35;;;3.92;;
62673;SDS011;62269;47.594;17.638;2023-04-01T01:38:23;6.30;;;4.20;;
62673;SDS011;62269;47.594;17.638;2023-04-01T01:39:11;6.37;;;4.07;;
62673;SDS011;62269;47.594;17.638;2023-04-01T01:40:03;5.30;;;3.95;;
62673;SDS011;62269;47.594;17.638;2023-04-01T01:40:52;5.95;;;4.20;;
62673;SDS011;62269;47.594;17.638;2023-04-01T01:41:41;5.57;;;4.50;;
62673;SDS011;62269;47.594;17.638;2023-04-01T01:42:29;5.75;;;4.53;;
62673;SDS011;62269;47.594;17.638;2023-04-01T01:43:19;5.03;;;4.12;;
62673;SDS011;62269;47.594;17.638;2023-04-01T01:44:08;5.30;;;4.40;;
62673;SDS011;62269;47.594;17.638;2023-04-01T01:44:56;5.78;;;4.10;;
62673;SDS011;62269;47.594;17.638;2023-04-01T01:45:44;5.32;;;4.22;;
62673;SDS011;62269;47.594;17.638;2023-04-01T01:46:34;5.53;;;4.37;;
62673;SDS011;62269;47.594;17.638;2023-04-01T01:47:22;5.30;;;4.47;;
62673;SDS011;62269;47.594;17.638;2023-04-01T01:48:10;5.50;;;4.50;;
62673;SDS011;62269;47.594;17.638;2023-04-01T01:48:57;5.90;;;4.30;;
62673;SDS011;62269;47.594;17.638;2023-04-01T01:49:46;6.47;;;4.32;;
62673;SDS011;62269;47.594;17.638;2023-04-01T01:50:33;5.68;;;4.70;;
62673;SDS011;62269;47.594;17.638;2023-04-01T01:51:21;7.82;;;4.78;;
62673;SDS011;62269;47.594;17.638;2023-04-01T01:52:09;6.90;;;4.80;;
62673;SDS011;62269;47.594;17.638;2023-04-01T01:53:04;5.18;;;4.45;;
62673;SDS011;62269;47.594;17.638;2023-04-01T01:53:53;5.30;;;4.22;;
62673;SDS011;62269;47.594;17.638;2023-04-01T01:54:53;5.25;;;4.40;;
62673;SDS011;62269;47.594;17.638;2023-04-01T01:55:43;5.37;;;4.30;;
62673;SDS011;62269;47.594;17.638;2023-04-01T01:56:30;6.18;;;4.50;;
62673;SDS011;62269;47.594;17.638;2023-04-01T01:57:26;5.90;;;4.53;;
62673;SDS011;62269;47.594;17.638;2023-04-01T01:59:08;4.65;;;4.15;;
62673;SDS011;62269;47.594;17.638;2023-04-01T01:59:58;5.72;;;4.43;;
62673;SDS011;62269;47.594;17.638;2023-04-01T02:00:53;5.68;;;4.10;;
62673;SDS011;62269;47.594;17.638;2023-04-01T02:01:43;5.25;;;4.65;;
62673;SDS011;62269;47.594;17.638;2023-04-01T02:02:35;5.03;;;4.28;;
62673;SDS011;62269;47.594;17.638;2023-04-01T02:03:23;4.78;;;4.07;;
62673;SDS011;62269;47.594;17.638;2023-04-01T02:04:12;6.50;;;4.60;;
62673;SDS011;62269;47.594;17.638;2023-04-01T02:05:00;6.60;;;4.95;;
62673;SDS011;62269;47.594;17.638;2023-04-01T02:05:49;5.75;;;4.12;;
62673;SDS011;62269;47.594;17.638;2023-04-01T02:06:37;6.05;;;4.37;;
62673;SDS011;62269;47.594;17.638;2023-04-01T02:07:28;5.32;;;4.07;;
62673;SDS011;62269;47.594;17.638;2023-04-01T02:08:22;5.72;;;4.43;;
62673;SDS011;62269;47.594;17.638;2023-04-01T02:09:31;5.57;;;4.50;;
62673;SDS011;62269;47.594;17.638;2023-04-01T02:10:20;4.78;;;4.28;;
62673;SDS011;62269;47.594;17.638;2023-04-01T02:11:10;5.78;;;4.40;;
62673;SDS011;62269;47.594;17.638;2023-04-01T02:12:03;5.22;;;4.50;;
62673;SDS011;62269;47.594;17.638;2023-04-01T02:12:53;6.28;;;4.12;;
62673;SDS011;62269;47.594;17.638;2023-04-01T02:13:45;5.07;;;4.22;;
62673;SDS011;62269;47.594;17.638;2023-04-01T02:14:39;5.90;;;4.10;;
62673;SDS011;62269;47.594;17.638;2023-04-01T02:15:34;8.75;;;4.43;;
62673;SDS011;62269;47.594;17.638;2023-04-01T02:17:38;6.97;;;4.57;;
62673;SDS011;62269;47.594;17.638;2023-04-01T02:18:28;7.20;;;4.68;;
62673;SDS011;62269;47.594;17.638;2023-04-01T02:19:16;5.55;;;4.35;;
62673;SDS011;62269;47.594;17.638;2023-04-01T02:20:11;7.12;;;4.62;;
62673;SDS011;62269;47.594;17.638;2023-04-01T02:21:01;4.85;;;4.32;;
62673;SDS011;62269;47.594;17.638;2023-04-01T02:21:55;5.68;;;4.57;;
62673;SDS011;62269;47.594;17.638;2023-04-01T02:22:46;7.03;;;4.53;;
62673;SDS011;62269;47.594;17.638;2023-04-01T02:23:35;6.75;;;4.70;;
62673;SDS011;62269;47.594;17.638;2023-04-01T02:24:23;8.27;;;5.07;;
62673;SDS011;62269;47.594;17.638;2023-04-01T02:25:15;6.20;;;4.60;;
62673;SDS011;62269;47.594;17.638;2023-04-01T02:26:13;7.32;;;4.50;;
62673;SDS011;62269;47.594;17.638;2023-04-01T02:27:00;5.70;;;4.40;;
62673;SDS011;62269;47.594;17.638;2023-04-01T02:27:48;5.37;;;4.40;;
62673;SDS011;62269;47.594;17.638;2023-04-01T02:28:35;5.75;;;4.37;;
62673;SDS011;62269;47.594;17.638;2023-04-01T02:29:24;4.90;;;4.40;;
62673;SDS011;62269;47.594;17.638;2023-04-01T02:30:14;8.85;;;5.18;;
62673;SDS011;62269;47.594;17.638;2023-04-01T02:31:02;7.07;;;5.20;;
62673;SDS011;62269;47.594;17.638;2023-04-01T02:31:50;6.60;;;4.68;;
62673;SDS011;62269;47.594;17.638;2023-04-01T02:32:38;5.35;;;4.20;;
62673;SDS011;62269;47.594;17.638;2023-04-01T02:33:25;7.60;;;4.53;;
62673;SDS011;62269;47.594;17.638;2023-04-01T02:34:14;5.62;;;4.15;;
62673;SDS011;62269;47.594;17.638;2023-04-01T02:35:01;7.32;;;4.53;;
62673;SDS011;62269;47.594;17.638;2023-04-01T02:35:52;6.20;;;4.72;;
62673;SDS011;62269;47.594;17.638;2023-04-01T02:36:39;8.48;;;5.05;;
62673;SDS011;62269;47.594;17.638;2023-04-01T02:37:26;5.22;;;4.40;;
62673;SDS011;62269;47.594;17.638;2023-04-01T02:38:13;6.05;;;4.32;;
62673;SDS011;62269;47.594;17.638;2023-04-01T02:39:02;6.93;;;4.82;;
62673;SDS011;62269;47.594;17.638;2023-04-01T02:39:50;5.60;;;4.40;;
62673;SDS011;62269;47.594;17.638;2023-04-01T02:41:20;5.25;;;4.50;;
62673;SDS011;62269;47.594;17.638;2023-04-01T02:41:47;5.05;;;3.33;;
62673;SDS011;62269;47.594;17.638;2023-04-01T02:42:34;6.22;;;4.15;;
62673;SDS011;62269;47.594;17.638;2023-04-01T02:43:21;5.50;;;4.50;;
62673;SDS011;62269;47.594;17.638;2023-04-01T02:44:09;6.03;;;4.40;;
62673;SDS011;62269;47.594;17.638;2023-04-01T02:44:57;5.50;;;4.35;;
62673;SDS011;62269;47.594;17.638;2023-04-01T02:45:44;5.93;;;4.55;;
62673;SDS011;62269;47.594;17.638;2023-04-01T02:46:31;5.12;;;4.60;;
62673;SDS011;62269;47.594;17.638;2023-04-01T02:47:18;8.15;;;4.55;;
62673;SDS011;62269;47.594;17.638;2023-04-01T02:48:05;7.70;;;4.35;;
62673;SDS011;62269;47.594;17.638;2023-04-01T02:48:52;6.40;;;4.72;;
62673;SDS011;62269;47.594;17.638;2023-04-01T02:49:40;7.32;;;4.80;;
62673;SDS011;62269;47.594;17.638;2023-04-01T02:50:28;6.15;;;4.65;;
62673;SDS011;62269;47.594;17.638;2023-04-01T02:51:15;6.70;;;4.28;;
62673;SDS011;62269;47.594;17.638;2023-04-01T02:52:03;5.72;;;4.75;;
62673;SDS011;62269;47.594;17.638;2023-04-01T02:52:51;5.18;;;4.25;;
62673;SDS011;62269;47.594;17.638;2023-04-01T02:53:38;6.15;;;4.47;;
62673;SDS011;62269;47.594;17.638;2023-04-01T02:54:25;6.40;;;4.10;;
62673;SDS011;62269;47.594;17.638;2023-04-01T02:55:12;9.43;;;4.72;;
62673;SDS011;62269;47.594;17.638;2023-04-01T02:55:59;5.40;;;4.15;;
62673;SDS011;62269;47.594;17.638;2023-04-01T02:56:46;5.45;;;3.95;;
62673;SDS011;62269;47.594;17.638;2023-04-01T02:57:32;5.45;;;4.30;;
62673;SDS011;62269;47.594;17.638;2023-04-01T02:58:20;5.40;;;3.80;;
62673;SDS011;62269;47.594;17.638;2023-04-01T02:59:07;6.00;;;4.20;;
62673;SDS011;62269;47.594;17.638;2023-04-01T02:59:53;6.20;;;4.28;;
62673;SDS011;62269;47.594;17.638;2023-04-01T03:00:40;5.97;;;4.00;;
62673;SDS011;62269;47.594;17.638;2023-04-01T03:01:28;4.90;;;4.00;;
62673;SDS011;62269;47.594;17.638;2023-04-01T03:02:15;5.22;;;4.25;;
62673;SDS011;62269;47.594;17.638;2023-04-01T03:03:02;6.10;;;4.45;;
62673;SDS011;62269;47.594;17.638;2023-04-01T03:03:49;7.25;;;4.70;;
62673;SDS011;62269;47.594;17.638;2023-04-01T03:04:36;6.53;;;4.30;;
62673;SDS011;62269;47.594;17.638;2023-04-01T03:05:23;6.35;;;4.20;;
62673;SDS011;62269;47.594;17.638;2023-04-01T03:06:11;4.68;;;3.90;;
62673;SDS011;62269;47.594;17.638;2023-04-01T03:06:59;4.57;;;4.00;;
62673;SDS011;62269;47.594;17.638;2023-04-01T03:07:46;5.47;;;3.95;;
62673;SDS011;62269;47.594;17.638;2023-04-01T03:08:33;6.20;;;4.37;;
62673;SDS011;62269;47.594;17.638;2023-04-01T03:09:20;6.65;;;3.97;;
62673;SDS011;62269;47.594;17.638;2023-04-01T03:10:07;5.37;;;4.10;;
62673;SDS011;62269;47.594;17.638;2023-04-01T03:10:55;6.28;;;3.80;;
62673;SDS011;62269;47.594;17.638;2023-04-01T03:11:44;7.47;;;4.35;;
62673;SDS011;62269;47.594;17.638;2023-04-01T03:12:31;5.90;;;3.97;;
62673;SDS011;62269;47.594;17.638;2023-04-01T03:13:18;6.12;;;3.95;;
62673;SDS011;62269;47.594;17.638;2023-04-01T03:14:05;5.37;;;4.05;;
62673;SDS011;62269;47.594;17.638;2023-04-01T03:14:53;5.47;;;4.05;;
62673;SDS011;62269;47.594;17.638;2023-04-01T03:15:40;6.55;;;4.85;;
62673;SDS011;62269;47.594;17.638;2023-04-01T03:16:27;5.50;;;4.35;;
62673;SDS011;62269;47.594;17.638;2023-04-01T03:17:14;6.30;;;4.37;;
62673;SDS011;62269;47.594;17.638;2023-04-01T03:18:01;6.85;;;4.78;;
62673;SDS011;62269;47.594;17.638;2023-04-01T03:18:49;6.93;;;4.10;;
62673;SDS011;62269;47.594;17.638;2023-04-01T03:19:38;4.65;;;3.95;;
62673;SDS011;62269;47.594;17.638;2023-04-01T03:20:25;5.78;;;4.30;;
62673;SDS011;62269;47.594;17.638;2023-04-01T03:21:16;4.20;;;3.67;;
62673;SDS011;62269;47.594;17.638;2023-04-01T03:22:04;5.35;;;4.12;;
62673;SDS011;62269;47.594;17.638;2023-04-01T03:22:51;4.68;;;4.10;;
62673;SDS011;62269;47.594;17.638;2023-04-01T03:23:38;6.97;;;5.03;;
62673;SDS011;62269;47.594;17.638;2023-04-01T03:24:25;6.07;;;3.95;;
62673;SDS011;62269;47.594;17.638;2023-04-01T03:25:12;6.47;;;4.20;;
62673;SDS011;62269;47.594;17.638;2023-04-01T03:25:59;4.93;;;4.22;;
62673;SDS011;62269;47.594;17.638;2023-04-01T03:26:46;6.95;;;4.35;;
62673;SDS011;62269;47.594;17.638;2023-04-01T03:27:34;7.45;;;4.68;;
62673;SDS011;62269;47.594;17.638;2023-04-01T03:28:22;5.65;;;4.25;;
62673;SDS011;62269;47.594;17.638;2023-04-01T03:29:09;7.53;;;4.95;;
62673;SDS011;62269;47.594;17.638;2023-04-01T03:29:55;6.05;;;4.50;;
62673;SDS011;62269;47.594;17.638;2023-04-01T03:30:42;6.45;;;4.50;;
62673;SDS011;62269;47.594;17.638;2023-04-01T03:31:30;8.30;;;4.50;;
62673;SDS011;62269;47.594;17.638;2023-04-01T03:32:17;6.07;;;4.75;;
62673;SDS011;62269;47.594;17.638;2023-04-01T03:33:04;7.60;;;5.22;;
62673;SDS011;62269;47.594;17.638;2023-04-01T03:33:51;8.10;;;4.70;;
62673;SDS011;62269;47.594;17.638;2023-04-01T03:34:38;7.22;;;4.93;;
62673;SDS011;62269;47.594;17.638;2023-04-01T03:35:25;5.32;;;4.55;;
62673;SDS011;62269;47.594;17.638;2023-04-01T03:36:12;6.22;;;4.53;;
62673;SDS011;62269;47.594;17.638;2023-04-01T03:37:00;5.97;;;4.50;;
62673;SDS011;62269;47.594;17.638;2023-04-01T03:37:47;6.18;;;4.62;;
62673;SDS011;62269;47.594;17.638;2023-04-01T03:38:34;5.40;;;4.50;;
62673;SDS011;62269;47.594;17.638;2023-04-01T03:39:21;5.75;;;4.35;;
62673;SDS011;62269;47.594;17.638;2023-04-01T03:40:09;5.37;;;4.62;;
62673;SDS011;62269;47.594;17.638;2023-04-01T03:40:56;5.78;;;4.65;;
62673;SDS011;62269;47.594;17.638;2023-04-01T03:41:43;7.43;;;4.70;;
62673;SDS011;62269;47.594;17.638;2023-04-01T03:42:31;5.95;;;5.18;;
62673;SDS011;62269;47.594;17.638;2023-04-01T03:43:18;7.20;;;4.72;;
62673;SDS011;62269;47.594;17.638;2023-04-01T03:44:05;6.18;;;4.87;;
62673;SDS011;62269;47.594;17.638;2023-04-01T03:44:52;7.03;;;4.70;;
62673;SDS011;62269;47.594;17.638;2023-04-01T03:45:46;6.07;;;4.65;;
62673;SDS011;62269;47.594;17.638;2023-04-01T03:46:34;6.28;;;5.25;;
62673;SDS011;62269;47.594;17.638;2023-04-01T03:47:21;5.70;;;4.80;;
62673;SDS011;62269;47.594;17.638;2023-04-01T03:48:08;6.30;;;4.72;;
62673;SDS011;62269;47.594;17.638;2023-04-01T03:48:55;6.53;;;4.70;;
62673;SDS011;62269;47.594;17.638;2023-04-01T03:49:42;6.32;;;5.35;;
62673;SDS011;62269;47.594;17.638;2023-04-01T03:50:29;5.53;;;4.78;;
62673;SDS011;62269;47.594;17.638;2023-04-01T03:51:17;6.25;;;5.15;;
62673;SDS011;62269;47.594;17.638;2023-04-01T03:52:04;7.37;;;4.97;;
62673;SDS011;62269;47.594;17.638;2023-04-01T03:52:55;6.00;;;4.50;;
62673;SDS011;62269;47.594;17.638;2023-04-01T03:53:42;6.90;;;4.87;;
62673;SDS011;62269;47.594;17.638;2023-04-01T03:54:29;6.53;;;5.03;;
62673;SDS011;62269;47.594;17.638;2023-04-01T03:55:16;5.78;;;4.80;;
62673;SDS011;62269;47.594;17.638;2023-04-01T03:56:05;5.43;;;4.50;;
62673;SDS011;62269;47.594;17.638;2023-04-01T03:56:53;5.78;;;4.90;;
62673;SDS011;62269;47.594;17.638;2023-04-01T03:57:41;7.32;;;5.00;;
62673;SDS011;62269;47.594;17.638;2023-04-01T03:58:28;6.05;;;5.00;;
62673;SDS011;62269;47.594;17.638;2023-04-01T03:59:15;6.57;;;4.45;;
62673;SDS011;62269;47.594;17.638;2023-04-01T04:00:02;6.00;;;4.57;;
62673;SDS011;62269;47.594;17.638;2023-04-01T04:00:49;7.95;;;4.45;;
62673;SDS011;62269;47.594;17.638;2023-04-01T04:01:36;8.43;;;4.80;;
62673;SDS011;62269;47.594;17.638;2023-04-01T04:02:23;6.60;;;4.93;;
62673;SDS011;62269;47.594;17.638;2023-04-01T04:03:11;7.75;;;5.28;;
62673;SDS011;62269;47.594;17.638;2023-04-01T04:03:58;8.82;;;4.90;;
62673;SDS011;62269;47.594;17.638;2023-04-01T04:04:45;5.25;;;4.53;;
62673;SDS011;62269;47.594;17.638;2023-04-01T04:05:32;7.18;;;4.30;;
62673;SDS011;62269;47.594;17.638;2023-04-01T04:06:20;6.30;;;4.07;;
62673;SDS011;62269;47.594;17.638;2023-04-01T04:07:07;5.72;;;4.45;;
62673;SDS011;62269;47.594;17.638;2023-04-01T04:07:54;7.32;;;4.43;;
62673;SDS011;62269;47.594;17.638;2023-04-01T04:08:41;5.57;;;4.22;;
62673;SDS011;62269;47.594;17.638;2023-04-01T04:09:29;7.93;;;4.12;;
62673;SDS011;62269;47.594;17.638;2023-04-01T04:10:17;6.50;;;4.55;;
62673;SDS011;62269;47.594;17.638;2023-04-01T04:11:05;7.40;;;4.53;;
62673;SDS011;62269;47.594;17.638;2023-04-01T04:11:52;6.43;;;4.40;;
62673;SDS011;62269;47.594;17.638;2023-04-01T04:12:39;6.00;;;4.20;;
62673;SDS011;62269;47.594;17.638;2023-04-01T04:13:26;6.72;;;4.43;;
62673;SDS011;62269;47.594;17.638;2023-04-01T04:14:13;5.85;;;4.15;;
62673;SDS011;62269;47.594;17.638;2023-04-01T04:15:00;7.85;;;4.18;;
62673;SDS011;62269;47.594;17.638;2023-04-01T04:15:48;6.90;;;4.15;;
62673;SDS011;62269;47.594;17.638;2023-04-01T04:16:35;6.03;;;4.75;;
62673;SDS011;62269;47.594;17.638;2023-04-01T04:17:23;8.13;;;4.43;;
62673;SDS011;62269;47.594;17.638;2023-04-01T04:18:10;6.00;;;4.00;;
62673;SDS011;62269;47.594;17.638;2023-04-01T04:18:57;5.95;;;4.05;;
62673;SDS011;62269;47.594;17.638;2023-04-01T04:19:44;7.72;;;4.12;;
62673;SDS011;62269;47.594;17.638;2023-04-01T04:20:31;5.65;;;4.00;;
62673;SDS011;62269;47.594;17.638;2023-04-01T04:21:18;7.35;;;4.10;;
62673;SDS011;62269;47.594;17.638;2023-04-01T04:22:05;5.78;;;4.45;;
62673;SDS011;62269;47.594;17.638;2023-04-01T04:22:52;8.00;;;4.20;;
62673;SDS011;62269;47.594;17.638;2023-04-01T04:23:39;6.35;;;4.50;;
62673;SDS011;62269;47.594;17.638;2023-04-01T04:24:26;5.15;;;3.97;;
62673;SDS011;62269;47.594;17.638;2023-04-01T04:25:13;4.72;;;4.07;;
62673;SDS011;62269;47.594;17.638;2023-04-01T04:26:03;6.30;;;4.47;;
62673;SDS011;62269;47.594;17.638;2023-04-01T04:26:51;5.62;;;4.00;;
62673;SDS011;62269;47.594;17.638;2023-04-01T04:27:38;5.93;;;4.43;;
62673;SDS011;62269;47.594;17.638;2023-04-01T04:28:26;7.18;;;4.40;;
62673;SDS011;62269;47.594;17.638;2023-04-01T04:29:14;4.78;;;4.28;;
62673;SDS011;62269;47.594;17.638;2023-04-01T04:30:01;4.43;;;4.03;;
62673;SDS011;62269;47.594;17.638;2023-04-01T04:30:48;6.65;;;4.00;;
62673;SDS011;62269;47.594;17.638;2023-04-01T04:31:35;7.68;;;4.43;;
62673;SDS011;62269;47.594;17.638;2023-04-01T04:32:22;5.95;;;4.07;;
62673;SDS011;62269;47.594;17.638;2023-04-01T04:33:09;4.68;;;3.90;;
62673;SDS011;62269;47.594;17.638;2023-04-01T04:33:58;4.68;;;3.92;;
62673;SDS011;62269;47.594;17.638;2023-04-01T04:34:45;6.25;;;4.30;;
62673;SDS011;62269;47.594;17.638;2023-04-01T04:35:32;5.75;;;4.30;;
62673;SDS011;62269;47.594;17.638;2023-04-01T04:36:20;6.18;;;4.00;;
62673;SDS011;62269;47.594;17.638;2023-04-01T04:37:08;6.12;;;4.05;;
62673;SDS011;62269;47.594;17.638;2023-04-01T04:37:55;6.82;;;3.78;;
62673;SDS011;62269;47.594;17.638;2023-04-01T04:38:42;6.53;;;4.30;;
62673;SDS011;62269;47.594;17.638;2023-04-01T04:39:29;5.70;;;4.05;;
62673;SDS011;62269;47.594;17.638;2023-04-01T04:40:16;4.90;;;3.80;;
62673;SDS011;62269;47.594;17.638;2023-04-01T04:41:03;6.72;;;4.10;;
62673;SDS011;62269;47.594;17.638;2023-04-01T04:41:50;7.50;;;4.15;;
62673;SDS011;62269;47.594;17.638;2023-04-01T04:42:37;8.13;;;4.20;;
62673;SDS011;62269;47.594;17.638;2023-04-01T04:43:24;7.37;;;4.60;;
62673;SDS011;62269;47.594;17.638;2023-04-01T04:44:11;4.65;;;3.80;;
62673;SDS011;62269;47.594;17.638;2023-04-01T04:44:58;5.20;;;3.72;;
62673;SDS011;62269;47.594;17.638;2023-04-01T04:45:45;6.72;;;4.30;;
62673;SDS011;62269;47.594;17.638;2023-04-01T04:46:32;6.72;;;3.67;;
62673;SDS011;62269;47.594;17.638;2023-04-01T04:47:19;8.55;;;3.95;;
62673;SDS011;62269;47.594;17.638;2023-04-01T04:48:10;7.75;;;4.40;;
62673;SDS011;62269;47.594;17.638;2023-04-01T04:49:05;8.07;;;4.05;;
62673;SDS011;62269;47.594;17.638;2023-04-01T04:49:52;11.00;;;4.80;;
62673;SDS011;62269;47.594;17.638;2023-04-01T04:50:40;8.60;;;4.20;;
62673;SDS011;62269;47.594;17.638;2023-04-01T04:51:27;6.30;;;4.03;;
62673;SDS011;62269;47.594;17.638;2023-04-01T04:52:14;5.20;;;3.75;;
62673;SDS011;62269;47.594;17.638;2023-04-01T04:53:01;6.05;;;3.87;;
62673;SDS011;62269;47.594;17.638;2023-04-01T04:53:49;5.20;;;3.80;;
62673;SDS011;62269;47.594;17.638;2023-04-01T04:54:38;6.55;;;3.78;;
62673;SDS011;62269;47.594;17.638;2023-04-01T04:55:25;6.65;;;3.83;;
62673;SDS011;62269;47.594;17.638;2023-04-01T04:56:12;5.57;;;3.80;;
62673;SDS011;62269;47.594;17.638;2023-04-01T04:56:59;6.45;;;4.10;;
62673;SDS011;62269;47.594;17.638;2023-04-01T04:57:46;15.70;;;5.32;;
62673;SDS011;62269;47.594;17.638;2023-04-01T04:58:34;10.63;;;4.90;;
62673;SDS011;62269;47.594;17.638;2023-04-01T04:59:21;5.10;;;3.80;;
62673;SDS011;62269;47.594;17.638;2023-04-01T05:00:08;7.90;;;3.92;;
62673;SDS011;62269;47.594;17.638;2023-04-01T05:00:56;4.70;;;3.53;;
62673;SDS011;62269;47.594;17.638;2023-04-01T05:01:43;5.15;;;3.97;;
62673;SDS011;62269;47.594;17.638;2023-04-01T05:02:31;5.80;;;3.92;;
62673;SDS011;62269;47.594;17.638;2023-04-01T05:03:18;6.43;;;3.70;;
62673;SDS011;62269;47.594;17.638;2023-04-01T05:04:05;6.20;;;4.00;;
62673;SDS011;62269;47.594;17.638;2023-04-01T05:04:52;5.75;;;4.12;;
62673;SDS011;62269;47.594;17.638;2023-04-01T05:05:52;7.93;;;3.72;;
62673;SDS011;62269;47.594;17.638;2023-04-01T05:06:41;6.07;;;3.90;;
62673;SDS011;62269;47.594;17.638;2023-04-01T05:07:30;5.35;;;3.78;;
62673;SDS011;62269;47.594;17.638;2023-04-01T05:08:17;7.15;;;3.83;;